Latest Weather Observations for Wyndham Airport

IDD60801

Issued at 7:01 pm CST Tuesday 30 June 2015 (issued every 30 minutes, with the page automatically refreshed every 10 minutes)

About weather observations | Map of weather stations | Latest weather observations for NT | Other Formats
Station Details ID: 001006 Name: WYNDHAM AERO Lat: -15.51 Lon: 128.15 Height: 3.8 m
Data from the previous 72 hours. | See also: Recent months for locations in Northern Territory
Date/Time
CST
Temp
°C
App
Temp
°C
Dew
Point
Rel
Hum
%
Delta-T
°C
Wind Press
QNH
hPa
Press
MSL
hPa
Rain
since 9 am
mm
Dir
 
Spd
km/h
Gust
km/h
Spd
kts
Gust
kts
30/07:00pm 25.9 22.8 3.8 24 11.0 E 9 11 5 6 1015.7 1015.7 0.0
30/06:30pm 28.9 25.3 5.1 22 12.3 E 13 17 7 9 1015.5 1015.5 0.0
30/06:00pm 30.2 25.7 4.0 19 13.4 ESE 17 26 9 14 1015.2 1015.2 0.0
30/05:30pm 30.9 25.9 4.6 19 13.6 ESE 20 30 11 16 1014.9 1014.9 0.0
30/05:00pm 31.1 26.0 4.0 18 13.9 ESE 20 30 11 16 1014.7 1014.7 0.0
30/04:30pm 31.2 26.3 4.9 19 13.7 ESE 20 28 11 15 1014.7 1014.7 0.0
30/04:00pm 31.4 26.5 5.0 19 13.8 ESE 20 32 11 17 1014.8 1014.8 0.0
30/03:30pm 31.5 26.6 5.1 19 13.9 ESE 20 30 11 16 1015.0 1015.0 0.0
30/03:00pm 31.7 27.0 5.3 19 13.9 ESE 19 28 10 15 1015.2 1015.2 0.0
30/02:30pm 31.6 27.1 5.9 20 13.7 E 19 30 10 16 1015.7 1015.7 0.0
30/02:00pm 31.2 27.0 5.6 20 13.5 ESE 17 26 9 14 1016.2 1016.2 0.0
30/01:30pm 31.5 26.9 5.8 20 13.6 E 19 32 10 17 1016.7 1016.7 0.0
30/01:00pm 31.1 26.0 6.2 21 13.3 E 22 41 12 22 1017.2 1017.2 0.0
30/12:30pm 31.6 26.1 5.9 20 13.7 ESE 24 39 13 21 1017.7 1017.7 0.0
30/12:00pm 30.4 24.7 4.9 20 13.3 E 24 37 13 20 1018.1 1018.1 0.0
30/11:30am 30.5 25.0 5.7 21 13.1 ESE 24 32 13 17 1018.6 1018.6 0.0
30/11:00am 29.5 23.4 4.9 21 12.7 ESE 26 37 14 20 1018.9 1018.9 0.0
30/10:30am 28.4 24.1 5.3 23 11.9 ESE 17 20 9 11 1019.2 1019.2 0.0
30/10:00am 26.2 24.2 6.3 28 10.3 S 6 9 3 5 1019.3 1019.3 0.0
30/09:30am 24.8 23.1 6.1 30 9.6 ENE 4 7 2 4 1019.3 1019.3 0.0
30/09:00am 21.3 20.5 6.4 38 7.5 CALM 0 0 0 0 1019.2 1019.2 0.0
30/08:30am 18.3 17.4 6.2 45 6.0 CALM 0 0 0 0 1018.9 1018.9 0.0
30/08:00am 15.5 14.6 6.0 53 4.6 CALM 0 0 0 0 1018.6 1018.6 0.0
30/07:30am 13.8 12.7 5.2 56 4.0 CALM 0 0 0 0 1018.2 1018.2 0.0
30/07:00am 13.9 12.9 5.8 58 3.8 CALM 0 0 0 0 1017.9 1017.9 0.0
30/06:30am 14.9 14.1 6.7 58 4.0 CALM 0 0 0 0 1017.5 1017.5 0.0
30/06:00am 15.7 15.2 7.7 59 4.0 CALM 0 4 0 2 1017.4 1017.4 0.0
30/05:30am 14.9 13.2 7.5 61 3.7 NW 6 7 3 4 1017.3 1017.3 0.0
30/05:00am 14.4 13.3 6.7 60 3.7 WSW 2 7 1 4 1017.1 1017.1 0.0
30/04:30am 14.6 13.2 5.7 55 4.2 ESE 2 6 1 3 1017.0 1017.0 0.0
30/04:00am 14.3 13.2 5.1 54 4.3 CALM 0 0 0 0 1017.1 1017.1 0.0
30/03:30am 14.2 12.3 4.8 53 4.4 ESE 4 6 2 3 1017.1 1017.1 0.0
30/03:00am 15.0 12.8 6.0 55 4.3 E 7 7 4 4 1017.0 1017.0 0.0
30/02:30am 16.1 14.0 6.8 54 4.6 ENE 7 9 4 5 1017.2 1017.2 0.0
30/02:00am 17.3 15.9 7.1 51 5.1 S 4 7 2 4 1017.3 1017.3 0.0
30/01:30am 17.7 16.0 7.4 51 5.2 E 6 7 3 4 1017.3 1017.3 0.0
30/01:00am 17.8 14.4 7.5 51 5.2 ESE 15 15 8 8 1017.3 1017.3 0.0
30/12:30am 17.9 15.5 5.2 43 6.1 E 7 9 4 5 1017.3 1017.3 0.0
30/12:00am 20.1 18.0 8.4 47 6.1 ENE 9 9 5 5 1017.1 1017.1 0.0
 
Date/Time
CST
Temp
°C
App
Temp
°C
Dew
Point
Rel
Hum
%
Delta-T
°C
Wind Press
QNH
hPa
Press
MSL
hPa
Rain
since 9 am
mm
Dir
 
Spd
km/h
Gust
km/h
Spd
kts
Gust
kts
29/11:30pm 19.9 17.8 8.3 47 6.0 E 9 11 5 6 1017.4 1017.4 0.0
29/11:00pm 19.5 16.9 7.6 46 6.1 E 11 13 6 7 1017.3 1017.3 0.0
29/10:30pm 19.2 16.1 7.3 46 6.0 E 13 13 7 7 1017.2 1017.2 0.0
29/10:00pm 19.5 18.7 6.3 42 6.6 CALM 0 0 0 0 1017.2 1017.2 0.0
29/09:30pm 19.7 18.5 4.6 37 7.3 CALM 0 0 0 0 1017.0 1017.0 0.0
29/09:00pm 22.7 21.7 5.6 33 8.6 CALM 0 0 0 0 1016.9 1016.9 0.0
29/08:30pm 22.9 20.3 6.2 34 8.5 WNW 9 9 5 5 1016.5 1016.5 0.0
29/08:00pm 24.3 22.2 6.6 32 9.1 SW 7 11 4 6 1016.2 1016.2 0.0
29/07:30pm 25.2 22.2 5.9 29 9.9 N 11 15 6 8 1015.8 1015.8 0.0
29/07:00pm 25.1 21.0 2.5 23 10.9 SE 13 13 7 7 1015.5 1015.5 0.0
29/06:30pm 27.9 23.9 2.9 20 12.4 SE 13 15 7 8 1015.3 1015.3 0.0
29/06:00pm 30.0 26.4 3.1 18 13.5 SE 11 15 6 8 1015.0 1015.0 0.0
29/05:30pm 30.7 28.0 2.9 17 14.0 ESE 6 15 3 8 1014.8 1014.8 0.0
29/05:00pm 31.1 28.3 3.2 17 14.2 SE 7 9 4 5 1014.8 1014.8 0.0
29/04:30pm 31.4 27.5 3.4 17 14.3 SE 13 22 7 12 1014.6 1014.6 0.0
29/04:00pm 31.5 27.8 4.3 18 14.1 ESE 13 19 7 10 1014.6 1014.6 0.0
29/03:30pm 31.5 28.5 4.3 18 14.1 SE 9 17 5 9 1014.8 1014.8 0.0
29/03:00pm 30.7 26.7 2.9 17 14.0 ESE 13 22 7 12 1015.0 1015.0 0.0
29/02:30pm 31.2 27.1 4.1 18 14.0 SE 15 24 8 13 1015.5 1015.5 0.0
29/02:00pm 30.4 27.0 4.2 19 13.5 NE 11 19 6 10 1016.1 1016.1 0.0
29/01:30pm 30.6 27.0 5.1 20 13.3 SE 13 19 7 10 1016.7 1016.7 0.0
29/01:00pm 29.9 24.9 3.8 19 13.3 E 19 30 10 16 1017.2 1017.2 0.0
29/12:30pm 30.6 25.3 5.1 20 13.3 ESE 22 33 12 18 1017.7 1017.7 0.0
29/12:00pm 30.0 24.6 4.6 20 13.1 E 22 33 12 18 1018.1 1018.1 0.0
29/11:30am 28.9 23.5 4.4 21 12.5 ESE 22 30 12 16 1018.6 1018.6 0.0
29/11:00am 28.0 22.2 4.3 22 12.0 E 24 32 13 17 1019.0 1019.0 0.0
29/10:30am 27.0 24.2 5.3 25 11.1 SE 9 22 5 12 1019.4 1019.4 0.0
29/10:00am 23.8 21.5 4.7 29 9.5 W 6 7 3 4 1019.6 1019.6 0.0
29/09:30am 21.5 19.1 5.4 35 8.0 SW 7 9 4 5 1019.6 1019.6 0.0
29/09:00am 20.2 18.2 4.3 35 7.7 SSW 4 7 2 4 1019.2 1019.2 0.0
29/08:30am 17.0 15.7 4.3 43 6.0 CALM 0 0 0 0 1018.9 1018.9 0.0
29/08:00am 14.6 13.3 4.3 50 4.8 CALM 0 0 0 0 1018.7 1018.7 0.0
29/07:30am 14.0 11.9 4.0 51 4.5 NW 4 7 2 4 1018.7 1018.7 0.0
29/07:00am 14.9 13.5 3.7 47 5.1 CALM 0 0 0 0 1018.5 1018.5 0.0
29/06:30am 14.4 13.0 3.8 49 4.8 CALM 0 0 0 0 1018.2 1018.2 0.0
29/06:00am 14.8 13.3 3.0 45 5.3 CALM 0 6 0 3 1018.1 1018.1 0.0
29/05:30am 15.5 12.8 2.7 42 5.7 W 6 7 3 4 1018.0 1018.0 0.0
29/05:00am 14.6 11.4 2.8 45 5.3 NW 9 11 5 6 1017.5 1017.5 0.0
29/04:30am 15.0 12.7 2.9 44 5.4 WNW 4 7 2 4 1017.4 1017.4 0.0
29/04:00am 14.4 10.9 1.0 40 5.7 WSW 9 11 5 6 1017.4 1017.4 0.0
29/03:30am 15.3 12.7 3.1 44 5.5 NNW 6 9 3 5 1017.5 1017.5 0.0
29/03:00am 16.4 14.5 3.1 41 6.1 WSW 2 6 1 3 1017.9 1017.9 0.0
29/02:30am 15.5 12.7 2.3 41 5.9 NW 6 9 3 5 1018.0 1018.0 0.0
29/02:00am 15.8 13.1 2.6 41 5.9 WNW 6 7 3 4 1018.2 1018.2 0.0
29/01:30am 16.5 13.7 2.9 40 6.2 NW 7 9 4 5 1018.3 1018.3 0.0
29/01:00am 17.6 14.4 2.8 37 6.8 NW 9 11 5 6 1018.3 1018.3 0.0
29/12:30am 18.4 15.2 3.1 36 7.1 NW 9 11 5 6 1018.2 1018.2 0.0
29/12:00am 16.8 13.2 0.9 34 7.0 NW 9 9 5 5 1018.3 1018.3 0.0
 
Date/Time
CST
Temp
°C
App
Temp
°C
Dew
Point
Rel
Hum
%
Delta-T
°C
Wind Press
QNH
hPa
Press
MSL
hPa
Rain
since 9 am
mm
Dir
 
Spd
km/h
Gust
km/h
Spd
kts
Gust
kts
28/11:30pm 18.3 15.3 2.2 34 7.3 NW 7 9 4 5 1018.3 1018.3 0.0
28/11:00pm 18.0 15.0 2.3 35 7.1 WNW 7 9 4 5 1018.4 1018.4 0.0
28/10:30pm 18.9 15.9 1.0 30 8.0 WSW 6 7 3 4 1018.4 1018.4 0.0
28/10:00pm 20.6 16.8 2.0 29 8.6 ENE 11 13 6 7 1018.3 1018.3 0.0
28/09:30pm 19.9 15.7 1.8 30 8.3 E 13 17 7 9 1018.3 1018.3 0.0
28/09:00pm 22.0 17.5 2.2 27 9.3 E 15 17 8 9 1018.2 1018.2 0.0
28/08:30pm 20.5 16.6 1.4 28 8.7 E 11 15 6 8 1017.9 1017.9 0.0
28/08:00pm 21.4 17.5 1.1 26 9.3 ESE 11 11 6 6 1017.5 1017.5 0.0
28/07:30pm 23.6 20.3 2.4 25 10.1 E 9 11 5 6 1017.0 1017.0 0.0
28/07:00pm 23.3 19.4 1.0 23 10.3 SE 11 13 6 7 1016.7 1016.7 0.0
28/06:30pm 25.7 21.4 1.1 20 11.6 ESE 13 15 7 8 1016.6 1016.6 0.0
28/06:00pm 28.1 24.7 1.6 18 12.8 ESE 9 15 5 8 1016.4 1016.4 0.0
28/05:30pm 28.8 24.9 1.3 17 13.3 ESE 11 20 6 11 1016.1 1016.1 0.0
28/05:00pm 28.8 24.5 1.3 17 13.3 SE 13 20 7 11 1016.0 1016.0 0.0
28/04:30pm 29.4 25.6 1.8 17 13.5 SSE 11 15 6 8 1016.2 1016.2 0.0
28/04:00pm 29.5 25.3 1.9 17 13.6 SE 13 35 7 19 1016.4 1016.4 0.0
28/03:30pm 29.4 25.6 1.8 17 13.5 ESE 11 19 6 10 1016.7 1016.7 0.0
28/03:00pm 28.9 24.8 2.2 18 13.1 SSE 13 20 7 11 1017.1 1017.1 0.0
28/02:30pm 29.2 25.1 2.5 18 13.2 ENE 13 20 7 11 1017.5 1017.5 0.0
28/02:00pm 28.7 24.6 2.1 18 13.1 ENE 13 20 7 11 1017.9 1017.9 0.0
28/01:30pm 28.7 24.3 2.8 19 12.8 SE 15 24 8 13 1018.5 1018.5 0.0
28/01:00pm 28.3 23.0 3.2 20 12.5 ESE 20 28 11 15 1019.0 1019.0 0.0
28/12:30pm 27.9 22.2 2.9 20 12.3 ESE 22 30 12 16 1019.6 1019.6 0.0
28/12:00pm 27.6 21.5 2.6 20 12.3 E 24 32 13 17 1020.0 1020.0 0.0
28/11:30am 27.1 20.5 2.2 20 12.1 E 26 35 14 19 1020.4 1020.4 0.0
28/11:00am 26.2 19.6 2.2 21 11.6 ESE 26 35 14 19 1020.7 1020.7 0.0
28/10:30am 25.5 17.8 2.2 22 11.2 E 32 39 17 21 1021.0 1021.0 0.0
28/10:00am 24.6 19.4 3.3 25 10.4 ESE 20 32 11 17 1021.1 1021.1 0.0
28/09:30am 23.5 20.0 3.4 27 9.7 ESE 11 20 6 11 1021.2 1021.2 0.0
28/09:00am 21.0 17.9 3.7 32 8.3 SE 9 11 5 6 1021.0 1021.0 0.0
28/08:30am 19.1 16.8 4.8 39 6.9 E 6 9 3 5 1020.7 1020.7 0.0
28/08:00am 14.6 11.9 2.5 44 5.4 ENE 6 7 3 4 1020.5 1020.5 0.0
28/07:30am 13.8 11.3 3.6 50 4.6 E 6 7 3 4 1020.2 1020.2 0.0
28/07:00am 12.6 9.5 1.3 46 4.8 E 7 7 4 4 1020.0 1020.0 0.0
28/06:30am 13.4 10.4 2.0 46 4.9 E 7 9 4 5 1019.8 1019.8 0.0
28/06:00am 14.7 11.8 2.6 44 5.4 E 7 9 4 5 1019.6 1019.6 0.0
28/05:30am 14.9 12.1 3.4 46 5.2 E 7 7 4 4 1019.5 1019.5 0.0
28/05:00am 15.5 12.9 3.0 43 5.7 E 6 7 3 4 1019.4 1019.4 0.0
28/04:30am 17.6 14.4 2.8 37 6.8 ENE 9 9 5 5 1019.3 1019.3 0.0
28/04:00am 17.6 14.3 2.4 36 6.9 ENE 9 11 5 6 1019.1 1019.1 0.0
28/03:30am 17.6 14.0 2.8 37 6.8 E 11 13 6 7 1019.1 1019.1 0.0
28/03:00am 17.1 13.6 3.4 40 6.3 E 11 11 6 6 1019.0 1019.0 0.0
28/02:30am 14.2 10.1 2.1 44 5.3 ESE 13 15 7 8 1019.2 1019.2 0.0
28/02:00am 14.3 12.7 2.2 44 5.3 CALM 0 0 0 0 1019.2 1019.2 0.0
28/01:30am 14.8 13.1 2.0 42 5.6 CALM 0 0 0 0 1019.3 1019.3 0.0
28/01:00am 15.9 14.4 3.0 42 5.9 CALM 0 0 0 0 1019.3 1019.3 0.0
28/12:30am 16.1 14.2 0.7 35 6.6 CALM 0 0 0 0 1019.3 1019.3 0.0
28/12:00am 18.0 15.3 2.7 36 7.0 ENE 6 7 3 4 1019.5 1019.5 0.0
 
Date/Time
CST
Temp
°C
App
Temp
°C
Dew
Point
Rel
Hum
%
Delta-T
°C
Wind Press
QNH
hPa
Press
MSL
hPa
Rain
since 9 am
mm
Dir
 
Spd
km/h
Gust
km/h
Spd
kts
Gust
kts
27/11:30pm 19.7 16.7 2.1 31 8.1 E 7 11 4 6 1019.6 1019.6 0.0
27/11:00pm 21.2 19.7 3.0 30 8.6 CALM 0 6 0 3 1019.4 1019.4 0.0
27/10:30pm 21.4 17.5 3.6 31 8.5 E 13 17 7 9 1019.2 1019.2 0.0
27/10:00pm 20.7 17.1 3.0 31 8.3 ESE 11 13 6 7 1019.2 1019.2 0.0
27/09:30pm 21.2 18.9 3.0 30 8.6 ENE 4 11 2 6 1019.1 1019.1 0.0
27/09:00pm 22.2 20.1 3.8 30 8.9 NE 4 9 2 5 1019.0 1019.0 0.0

Other Formats:

Comma delimited format used in spreadsheet applications
http://www.bom.gov.au/fwo/IDD60801/IDD60801.95214.axf

JavaScript Object Notation format (JSON) in row-major order
http://www.bom.gov.au/fwo/IDD60801/IDD60801.95214.json